createdAt,value
2018-12-30T00:01:18.082Z,70.16
2018-12-30T00:03:49.437Z,69.95
2018-12-30T00:06:21.034Z,69.63
2018-12-30T00:08:52.654Z,69.65
2018-12-30T00:11:23.895Z,69.53
2018-12-30T00:13:55.043Z,70.30
2018-12-30T00:16:26.557Z,70.31
2018-12-30T00:18:57.764Z,69.92
2018-12-30T00:21:29.346Z,70.01
2018-12-30T00:24:00.787Z,69.96
2018-12-30T00:26:32.221Z,69.43
2018-12-30T00:29:04.000Z,69.30
2018-12-30T00:31:35.375Z,69.36
2018-12-30T00:34:06.861Z,69.79
2018-12-30T00:36:38.335Z,69.70
2018-12-30T00:39:09.834Z,69.78
2018-12-30T00:41:41.166Z,69.67
2018-12-30T00:44:12.528Z,70.31
2018-12-30T00:46:44.070Z,70.49
2018-12-30T00:49:15.486Z,69.85
2018-12-30T00:51:47.023Z,69.68
2018-12-30T00:54:18.190Z,69.62
2018-12-30T00:56:49.566Z,69.10
2018-12-30T00:59:20.860Z,68.98
2018-12-30T01:01:52.235Z,68.80
2018-12-30T01:04:23.753Z,68.99
2018-12-30T01:06:55.145Z,69.49
2018-12-30T01:09:26.589Z,69.29
2018-12-30T01:11:57.998Z,68.84
2018-12-30T01:14:29.330Z,68.82
2018-12-30T01:17:00.739Z,69.02
2018-12-30T01:19:32.241Z,68.76
2018-12-30T01:22:03.549Z,69.05
2018-12-30T01:24:34.701Z,68.77
2018-12-30T01:27:06.426Z,69.43
2018-12-30T01:29:37.940Z,69.76
2018-12-30T01:32:09.383Z,70.43
2018-12-30T01:34:40.530Z,70.64
2018-12-30T01:37:11.705Z,70.15
2018-12-30T01:39:42.906Z,70.14
2018-12-30T01:42:14.054Z,70.43
2018-12-30T01:44:45.169Z,70.39
2018-12-30T01:47:16.353Z,70.62
2018-12-30T01:49:47.737Z,70.60
2018-12-30T01:52:19.035Z,70.08
2018-12-30T01:54:50.447Z,70.25
2018-12-30T01:57:21.889Z,70.10
2018-12-30T01:59:53.200Z,70.30
2018-12-30T02:02:24.691Z,69.71
2018-12-30T02:04:56.201Z,69.78
2018-12-30T02:07:27.314Z,69.79
2018-12-30T02:09:58.513Z,69.66
2018-12-30T02:12:29.982Z,69.07
2018-12-30T02:15:01.290Z,68.65
2018-12-30T02:17:32.771Z,68.69
2018-12-30T02:20:04.291Z,68.68
2018-12-30T02:22:35.753Z,68.64
2018-12-30T02:25:07.085Z,68.82
2018-12-30T02:27:38.679Z,68.51
2018-12-30T02:30:10.145Z,68.65
2018-12-30T02:32:41.970Z,68.57
2018-12-30T02:35:13.346Z,68.46
2018-12-30T02:37:44.700Z,68.47
2018-12-30T02:40:16.044Z,68.32
2018-12-30T02:42:47.738Z,68.13
2018-12-30T02:45:18.896Z,67.91
2018-12-30T02:47:50.011Z,67.92
2018-12-30T02:50:21.370Z,67.85
2018-12-30T02:52:53.002Z,67.69
2018-12-30T02:55:24.447Z,67.42
2018-12-30T02:57:55.905Z,66.76
2018-12-30T03:00:27.346Z,66.69
2018-12-30T03:02:58.863Z,66.70
2018-12-30T03:05:31.256Z,67.04
2018-12-30T03:08:02.815Z,66.14
2018-12-30T03:10:34.366Z,65.58
2018-12-30T03:13:05.824Z,65.58
2018-12-30T03:15:37.075Z,65.60
2018-12-30T03:18:08.256Z,65.45
2018-12-30T03:20:39.801Z,65.36
2018-12-30T03:23:11.152Z,65.71
2018-12-30T03:25:42.272Z,65.02
2018-12-30T03:28:13.462Z,65.07
2018-12-30T03:30:44.683Z,65.41
2018-12-30T03:33:16.037Z,65.02
2018-12-30T03:35:47.445Z,65.46
2018-12-30T03:38:18.569Z,65.10
2018-12-30T03:40:49.982Z,65.15
2018-12-30T03:43:21.333Z,65.28
2018-12-30T03:45:52.605Z,65.51
2018-12-30T03:48:24.186Z,65.53
2018-12-30T03:50:55.558Z,65.67
2018-12-30T03:53:26.763Z,65.94
2018-12-30T03:55:58.291Z,66.03
2018-12-30T03:58:29.735Z,66.25
2018-12-30T04:01:01.191Z,66.00
2018-12-30T04:03:32.925Z,66.14
2018-12-30T04:06:04.504Z,66.27
2018-12-30T04:08:35.849Z,66.05
2018-12-30T04:11:07.318Z,66.00
2018-12-30T04:13:38.474Z,65.70
2018-12-30T04:16:09.889Z,65.68
2018-12-30T04:18:41.322Z,65.52
2018-12-30T04:21:12.753Z,65.28
2018-12-30T04:23:43.969Z,65.43
2018-12-30T04:26:15.373Z,65.46
2018-12-30T04:28:46.901Z,65.29
2018-12-30T04:31:18.213Z,65.57
2018-12-30T04:33:49.912Z,65.34
2018-12-30T04:36:21.216Z,64.89
2018-12-30T04:38:52.708Z,64.78
2018-12-30T04:41:24.162Z,65.44
2018-12-30T04:43:55.635Z,64.80
2018-12-30T04:46:27.106Z,64.71
2018-12-30T04:48:58.459Z,64.26
2018-12-30T04:51:29.720Z,64.25
2018-12-30T04:54:01.038Z,64.25
2018-12-30T04:56:32.291Z,63.88
2018-12-30T04:59:03.638Z,64.16
2018-12-30T05:01:34.714Z,64.11
2018-12-30T05:04:06.083Z,63.96
2018-12-30T05:06:37.341Z,64.17
2018-12-30T05:09:09.077Z,64.14
2018-12-30T05:11:40.474Z,63.52
2018-12-30T05:14:11.946Z,63.79
2018-12-30T05:16:43.361Z,63.89
2018-12-30T05:19:14.932Z,64.44
2018-12-30T05:21:46.200Z,64.02
2018-12-30T05:24:17.639Z,64.17
2018-12-30T05:26:49.082Z,63.97
2018-12-30T05:29:20.494Z,63.95
2018-12-30T05:31:51.862Z,64.14
2018-12-30T05:34:23.239Z,64.19
2018-12-30T05:36:54.682Z,64.29
2018-12-30T05:39:26.356Z,64.47
2018-12-30T05:41:58.974Z,64.34
2018-12-30T05:44:30.545Z,64.53
2018-12-30T05:47:01.854Z,64.57
2018-12-30T05:49:33.312Z,64.83
2018-12-30T05:52:04.752Z,64.85
2018-12-30T05:54:36.307Z,65.06
2018-12-30T05:57:07.653Z,65.11
2018-12-30T05:59:39.050Z,65.33
2018-12-30T06:02:10.414Z,64.93
2018-12-30T06:04:42.025Z,65.15
2018-12-30T06:07:13.405Z,65.32
2018-12-30T06:09:44.889Z,65.53
2018-12-30T06:12:16.307Z,65.37
2018-12-30T06:14:47.769Z,65.30
2018-12-30T06:17:19.236Z,65.21
2018-12-30T06:19:50.346Z,64.83
2018-12-30T06:22:21.500Z,65.06
2018-12-30T06:24:53.103Z,64.37
2018-12-30T06:27:24.188Z,64.46
2018-12-30T06:29:55.535Z,64.93
2018-12-30T06:32:26.738Z,64.76
2018-12-30T06:34:58.285Z,64.57
2018-12-30T06:37:29.671Z,65.12
2018-12-30T06:40:01.006Z,64.97
2018-12-30T06:42:32.499Z,65.45
2018-12-30T06:45:04.218Z,64.72
2018-12-30T06:47:35.667Z,64.80
2018-12-30T06:50:07.324Z,65.04
2018-12-30T06:52:38.698Z,64.76
2018-12-30T06:55:10.220Z,64.45
2018-12-30T06:57:41.511Z,65.14
2018-12-30T07:00:12.899Z,65.27
2018-12-30T07:02:44.403Z,65.41
2018-12-30T07:05:16.753Z,64.73
2018-12-30T07:07:47.929Z,65.00
2018-12-30T07:10:19.389Z,64.86
2018-12-30T07:12:50.574Z,65.05
2018-12-30T07:15:22.061Z,64.82
2018-12-30T07:17:53.555Z,64.69
2018-12-30T07:20:25.137Z,64.76
2018-12-30T07:22:56.855Z,64.42
2018-12-30T07:25:28.395Z,64.08
2018-12-30T07:27:59.581Z,64.91
2018-12-30T07:30:30.995Z,67.48
2018-12-30T07:33:02.201Z,66.47
2018-12-30T07:35:33.317Z,64.83
2018-12-30T07:38:04.525Z,63.63
2018-12-30T07:40:36.032Z,62.83
2018-12-30T07:43:07.374Z,63.29
2018-12-30T07:45:38.907Z,63.71
2018-12-30T07:48:10.294Z,63.59
2018-12-30T07:50:41.465Z,63.66
2018-12-30T07:53:13.907Z,63.67
2018-12-30T07:55:45.256Z,63.86
2018-12-30T07:58:16.347Z,63.75
2018-12-30T08:00:47.512Z,63.37
2018-12-30T08:03:18.755Z,63.50
2018-12-30T08:05:50.394Z,63.77
2018-12-30T08:08:21.456Z,64.46
2018-12-30T08:10:52.857Z,64.82
2018-12-30T08:13:24.251Z,64.81
2018-12-30T08:15:55.720Z,64.71
2018-12-30T08:18:26.834Z,65.20
2018-12-30T08:20:58.176Z,64.64
2018-12-30T08:23:29.325Z,64.42
2018-12-30T08:26:00.516Z,64.25
2018-12-30T08:28:31.736Z,64.74
2018-12-30T08:31:03.101Z,64.76
2018-12-30T08:33:34.460Z,64.41
2018-12-30T08:36:05.598Z,64.25
2018-12-30T08:38:36.795Z,64.54
2018-12-30T08:41:08.108Z,64.40
2018-12-30T08:43:39.226Z,64.99
2018-12-30T08:46:10.495Z,64.21
2018-12-30T08:48:42.122Z,64.46
2018-12-30T08:51:13.459Z,64.62
2018-12-30T08:53:45.039Z,64.30
2018-12-30T08:56:16.305Z,64.29
2018-12-30T08:58:47.416Z,64.39
2018-12-30T09:01:19.080Z,64.30
2018-12-30T09:03:50.476Z,64.52
2018-12-30T09:06:21.719Z,64.99
2018-12-30T09:08:53.046Z,64.81
2018-12-30T09:11:24.442Z,64.93
2018-12-30T09:13:56.070Z,64.95
2018-12-30T09:16:27.375Z,64.79
2018-12-30T09:18:58.810Z,65.04
2018-12-30T09:21:30.291Z,64.80
2018-12-30T09:24:01.462Z,64.73
2018-12-30T09:26:33.019Z,64.86
2018-12-30T09:29:04.620Z,65.18
2018-12-30T09:31:35.998Z,65.08
2018-12-30T09:34:07.443Z,65.82
2018-12-30T09:36:39.793Z,65.11
2018-12-30T09:39:11.148Z,65.87
2018-12-30T09:41:42.582Z,66.36
2018-12-30T09:44:14.057Z,68.17
2018-12-30T09:46:45.687Z,66.14
2018-12-30T09:49:17.115Z,66.18
2018-12-30T09:51:48.537Z,66.27
2018-12-30T09:54:19.866Z,67.12
2018-12-30T09:56:50.937Z,65.89
2018-12-30T09:59:22.460Z,65.83
2018-12-30T10:01:54.047Z,66.08
2018-12-30T10:04:25.395Z,66.54
2018-12-30T10:06:56.897Z,65.89
2018-12-30T10:09:28.256Z,64.98
2018-12-30T10:11:59.717Z,65.55
2018-12-30T10:14:31.182Z,65.79
2018-12-30T10:17:02.365Z,65.93
2018-12-30T10:19:33.844Z,66.18
2018-12-30T10:22:05.311Z,67.07
2018-12-30T10:24:36.840Z,67.31
2018-12-30T10:27:08.327Z,67.15
2018-12-30T10:29:39.674Z,67.38
2018-12-30T10:32:10.988Z,67.70
2018-12-30T10:34:42.412Z,67.78
2018-12-30T10:37:13.870Z,67.87
2018-12-30T10:39:45.313Z,68.37
2018-12-30T10:42:16.662Z,68.53
2018-12-30T10:44:48.146Z,68.94
2018-12-30T10:47:19.381Z,69.24
2018-12-30T10:49:51.948Z,69.74
2018-12-30T10:52:23.387Z,70.01
2018-12-30T10:54:54.688Z,70.00
2018-12-30T10:57:26.172Z,70.26
2018-12-30T10:59:57.544Z,70.53
2018-12-30T11:02:28.974Z,71.11
2018-12-30T11:05:00.297Z,70.91
2018-12-30T11:07:31.691Z,70.62
2018-12-30T11:10:03.150Z,70.94
2018-12-30T11:12:34.557Z,70.33
2018-12-30T11:15:06.466Z,70.46
2018-12-30T11:17:37.885Z,70.12
2018-12-30T11:20:09.456Z,70.37
2018-12-30T11:22:40.812Z,71.04
2018-12-30T11:25:11.903Z,69.58
2018-12-30T11:27:43.414Z,69.87
2018-12-30T11:30:14.987Z,70.43
2018-12-30T11:32:46.536Z,70.23
2018-12-30T11:35:17.986Z,70.11
2018-12-30T11:37:49.396Z,69.59
2018-12-30T11:40:20.876Z,69.90
2018-12-30T11:42:52.203Z,69.70
2018-12-30T11:45:23.635Z,69.29
2018-12-30T11:47:55.092Z,69.20
2018-12-30T11:50:26.454Z,68.99
2018-12-30T11:52:57.921Z,68.76
2018-12-30T11:55:29.342Z,69.25
2018-12-30T11:58:00.850Z,69.52
2018-12-30T12:00:32.195Z,69.54
2018-12-30T12:03:03.616Z,69.34
2018-12-30T12:05:34.977Z,69.66
2018-12-30T12:08:06.229Z,69.99
2018-12-30T12:10:37.355Z,70.38
2018-12-30T12:13:08.844Z,70.60
2018-12-30T12:15:39.870Z,70.58
2018-12-30T12:18:11.373Z,71.10
2018-12-30T12:20:42.658Z,70.83
2018-12-30T12:23:14.370Z,70.84
2018-12-30T12:25:45.487Z,70.87
2018-12-30T12:28:16.947Z,70.55
2018-12-30T12:30:48.179Z,70.96
2018-12-30T12:33:19.592Z,71.25
2018-12-30T12:35:51.001Z,70.97
2018-12-30T12:38:22.441Z,70.39
2018-12-30T12:40:54.788Z,70.34
2018-12-30T12:43:26.231Z,69.96
2018-12-30T12:45:57.526Z,70.16
2018-12-30T12:48:28.667Z,70.22
2018-12-30T12:50:59.995Z,70.39
2018-12-30T12:53:31.107Z,69.59
2018-12-30T12:56:02.530Z,69.49
2018-12-30T12:58:33.818Z,68.05
2018-12-30T13:01:04.995Z,68.51
2018-12-30T13:03:36.604Z,67.97
2018-12-30T13:06:07.900Z,67.85
2018-12-30T13:08:39.359Z,67.38
2018-12-30T13:11:10.466Z,67.64
2018-12-30T13:13:41.752Z,67.94
2018-12-30T13:16:14.159Z,67.66
2018-12-30T13:18:45.480Z,67.26
2018-12-30T13:21:16.942Z,67.63
2018-12-30T13:23:48.363Z,67.48
2018-12-30T13:26:19.446Z,67.07
2018-12-30T13:28:50.900Z,67.58
2018-12-30T13:31:22.056Z,67.08
2018-12-30T13:33:53.140Z,67.53
2018-12-30T13:36:25.497Z,67.32
2018-12-30T13:38:56.793Z,66.93
2018-12-30T13:41:28.318Z,66.94
2018-12-30T13:43:59.666Z,66.79
2018-12-30T13:46:32.685Z,66.51
2018-12-30T13:49:03.980Z,66.35
2018-12-30T13:51:35.404Z,66.18
2018-12-30T13:54:06.597Z,65.64
2018-12-30T13:56:37.778Z,65.76
2018-12-30T13:59:09.053Z,65.67
2018-12-30T14:01:40.490Z,65.25
2018-12-30T14:04:11.988Z,65.13
2018-12-30T14:06:43.424Z,64.89
2018-12-30T14:09:14.919Z,64.76
2018-12-30T14:11:46.209Z,64.84
2018-12-30T14:14:17.637Z,64.39
2018-12-30T14:16:48.966Z,64.55
2018-12-30T14:19:20.577Z,64.18
2018-12-30T14:21:52.104Z,64.41
2018-12-30T14:24:23.689Z,64.22
2018-12-30T14:26:59.852Z,64.42
2018-12-30T14:29:27.597Z,64.14
2018-12-30T14:31:59.020Z,63.67
2018-12-30T14:34:30.511Z,64.04
2018-12-30T14:37:01.867Z,64.51
2018-12-30T14:39:33.308Z,63.93
2018-12-30T14:42:04.711Z,63.36
2018-12-30T14:44:37.063Z,62.96
2018-12-30T14:47:08.779Z,63.36
2018-12-30T14:49:40.182Z,63.06
2018-12-30T14:52:11.330Z,63.09
2018-12-30T14:54:43.048Z,63.53
2018-12-30T14:57:14.453Z,63.98
2018-12-30T14:59:45.908Z,63.55
2018-12-30T15:02:17.446Z,63.74
2018-12-30T15:04:48.840Z,64.66
2018-12-30T15:07:20.103Z,64.31
2018-12-30T15:09:51.741Z,64.59
2018-12-30T15:12:23.146Z,64.39
2018-12-30T15:14:54.472Z,64.80
2018-12-30T15:17:25.890Z,65.46
2018-12-30T15:19:57.319Z,65.73
2018-12-30T15:22:28.659Z,65.97
2018-12-30T15:25:00.268Z,66.82
2018-12-30T15:27:31.536Z,67.45
2018-12-30T15:30:03.194Z,67.35
2018-12-30T15:32:34.422Z,67.59
2018-12-30T15:35:06.110Z,67.83
2018-12-30T15:37:37.458Z,68.35
2018-12-30T15:40:08.853Z,68.43
2018-12-30T15:42:40.082Z,68.99
2018-12-30T15:45:11.223Z,69.06
2018-12-30T15:47:42.648Z,69.06
2018-12-30T15:50:14.040Z,69.96
2018-12-30T15:52:45.181Z,69.92
2018-12-30T15:55:19.619Z,70.32
2018-12-30T15:57:49.769Z,69.75
2018-12-30T16:00:21.120Z,70.00
2018-12-30T16:02:52.296Z,70.15
2018-12-30T16:05:23.832Z,70.02
2018-12-30T16:07:55.154Z,70.32
2018-12-30T16:10:26.579Z,70.67
2018-12-30T16:12:57.677Z,70.80
2018-12-30T16:15:28.800Z,70.49
2018-12-30T16:18:00.132Z,70.77
2018-12-30T16:20:31.581Z,71.56
2018-12-30T16:23:03.057Z,71.33
2018-12-30T16:25:34.654Z,71.93
2018-12-30T16:28:05.897Z,71.96
2018-12-30T16:30:37.292Z,72.10
2018-12-30T16:33:08.806Z,72.50
2018-12-30T16:35:40.102Z,72.89
2018-12-30T16:38:11.548Z,73.05
2018-12-30T16:40:42.658Z,73.28
2018-12-30T16:43:13.766Z,73.09
2018-12-30T16:45:45.236Z,73.01
2018-12-30T16:48:16.670Z,72.93
2018-12-30T16:50:57.145Z,72.42
2018-12-30T16:53:28.541Z,72.76
2018-12-30T16:55:59.939Z,72.27
2018-12-30T16:58:31.060Z,72.40
2018-12-30T17:01:02.631Z,72.40
2018-12-30T17:03:34.108Z,72.04
2018-12-30T17:06:05.555Z,71.78
2018-12-30T17:08:36.839Z,71.79
2018-12-30T17:11:08.225Z,71.61
2018-12-30T17:13:39.671Z,71.59
2018-12-30T17:16:11.174Z,72.04
2018-12-30T17:18:42.530Z,72.42
2018-12-30T17:21:14.046Z,72.40
2018-12-30T17:23:45.256Z,72.13
2018-12-30T17:26:16.831Z,72.27
2018-12-30T17:28:48.120Z,72.33
2018-12-30T17:31:19.208Z,72.45
2018-12-30T17:33:50.487Z,71.58
2018-12-30T17:36:21.832Z,71.43
2018-12-30T17:38:53.213Z,71.23
2018-12-30T17:41:24.831Z,70.99
2018-12-30T17:43:56.138Z,71.02
2018-12-30T17:46:27.412Z,71.59
2018-12-30T17:48:58.935Z,71.34
2018-12-30T17:51:30.422Z,70.95
2018-12-30T17:54:01.715Z,71.30
2018-12-30T17:56:33.167Z,71.30
2018-12-30T17:59:04.663Z,71.14
2018-12-30T18:01:35.946Z,70.33
2018-12-30T18:04:07.401Z,70.17
2018-12-30T18:06:38.782Z,70.51
2018-12-30T18:09:10.037Z,70.68
2018-12-30T18:11:41.255Z,70.67
2018-12-30T18:14:12.571Z,70.41
2018-12-30T18:16:43.870Z,70.56
2018-12-30T18:19:15.170Z,70.28
2018-12-30T18:21:46.600Z,70.41
2018-12-30T18:24:17.879Z,69.94
2018-12-30T18:26:49.401Z,70.32
2018-12-30T18:29:21.249Z,69.91
2018-12-30T18:31:52.767Z,69.48
2018-12-30T18:34:24.139Z,69.04
2018-12-30T18:36:55.293Z,68.86
2018-12-30T18:39:26.629Z,68.50
2018-12-30T18:41:58.078Z,68.21
2018-12-30T18:44:29.396Z,68.93
2018-12-30T18:47:00.775Z,68.66
2018-12-30T18:49:32.106Z,68.23
2018-12-30T18:52:03.525Z,68.67
2018-12-30T18:54:34.784Z,68.47
2018-12-30T18:57:06.206Z,68.45
2018-12-30T18:59:37.996Z,68.46
2018-12-30T19:02:09.493Z,68.77
2018-12-30T19:04:41.644Z,68.69
2018-12-30T19:07:12.994Z,67.92
2018-12-30T19:09:44.151Z,67.80
2018-12-30T19:12:15.638Z,68.18
2018-12-30T19:14:47.116Z,67.96
2018-12-30T19:17:18.575Z,68.72
2018-12-30T19:19:49.936Z,68.08
2018-12-30T19:22:21.250Z,68.00
2018-12-30T19:24:52.374Z,68.07
2018-12-30T19:27:23.567Z,68.23
2018-12-30T19:29:54.689Z,68.96
2018-12-30T19:32:25.865Z,68.86
2018-12-30T19:34:57.338Z,69.50
2018-12-30T19:37:28.523Z,69.21
2018-12-30T19:39:59.748Z,69.61
2018-12-30T19:42:31.247Z,69.40
2018-12-30T19:45:02.461Z,69.87
2018-12-30T19:47:33.622Z,69.28
2018-12-30T19:50:05.122Z,69.04
2018-12-30T19:52:36.522Z,69.21
2018-12-30T19:55:08.060Z,69.55
2018-12-30T19:57:39.311Z,69.52
2018-12-30T20:00:12.037Z,69.46
2018-12-30T20:02:43.221Z,69.35
2018-12-30T20:05:14.354Z,69.34
2018-12-30T20:07:45.870Z,68.91
2018-12-30T20:10:16.935Z,69.16
2018-12-30T20:12:48.357Z,69.23
2018-12-30T20:15:19.755Z,69.63
2018-12-30T20:17:51.121Z,69.28
2018-12-30T20:20:22.565Z,69.43
2018-12-30T20:22:53.892Z,70.17
2018-12-30T20:25:25.312Z,70.69
2018-12-30T20:27:56.791Z,70.09
2018-12-30T20:30:28.153Z,69.82
2018-12-30T20:32:59.554Z,69.86
2018-12-30T20:35:30.792Z,69.99
2018-12-30T20:38:02.150Z,69.68
2018-12-30T20:40:33.251Z,69.81
2018-12-30T20:43:04.649Z,69.91
2018-12-30T20:45:35.747Z,69.63
2018-12-30T20:48:06.858Z,69.74
2018-12-30T20:50:38.106Z,69.57
2018-12-30T20:53:09.678Z,69.50
2018-12-30T20:55:41.157Z,69.46
2018-12-30T20:58:12.477Z,69.76
2018-12-30T21:00:43.609Z,70.00
2018-12-30T21:03:14.759Z,69.88
2018-12-30T21:05:46.093Z,69.82
2018-12-30T21:08:17.454Z,69.69
2018-12-30T21:10:48.982Z,69.35
2018-12-30T21:13:20.350Z,69.35
2018-12-30T21:15:51.832Z,68.91
2018-12-30T21:18:23.341Z,69.07
2018-12-30T21:20:54.795Z,69.10
2018-12-30T21:23:26.234Z,69.39
2018-12-30T21:25:57.770Z,68.88
2018-12-30T21:28:29.069Z,69.49
2018-12-30T21:31:00.449Z,69.99
2018-12-30T21:33:31.655Z,69.71
2018-12-30T21:36:03.035Z,68.92
2018-12-30T21:38:34.257Z,68.95
2018-12-30T21:41:05.806Z,69.51
2018-12-30T21:43:37.322Z,69.56
2018-12-30T21:46:08.750Z,70.20
2018-12-30T21:48:40.201Z,70.02
2018-12-30T21:51:11.513Z,69.30
2018-12-30T21:53:42.917Z,69.74
2018-12-30T21:56:15.176Z,69.51
2018-12-30T21:58:46.557Z,69.29
2018-12-30T22:01:17.899Z,68.87
2018-12-30T22:03:49.201Z,68.79
2018-12-30T22:06:20.604Z,68.54
2018-12-30T22:08:52.064Z,67.96
2018-12-30T22:11:23.179Z,67.98
2018-12-30T22:13:54.295Z,68.04
2018-12-30T22:16:25.626Z,68.03
2018-12-30T22:18:56.824Z,68.57
2018-12-30T22:21:28.483Z,68.00
2018-12-30T22:23:59.723Z,67.65
2018-12-30T22:26:30.968Z,67.72
2018-12-30T22:29:02.315Z,68.25
2018-12-30T22:31:33.363Z,68.24
2018-12-30T22:34:04.554Z,68.91
2018-12-30T22:36:35.635Z,68.74
2018-12-30T22:39:08.300Z,69.33
2018-12-30T22:41:39.383Z,69.55
2018-12-30T22:44:10.750Z,68.91
2018-12-30T22:46:41.861Z,68.76
2018-12-30T22:49:13.206Z,68.81
2018-12-30T22:51:44.573Z,68.62
2018-12-30T22:54:15.978Z,69.01
2018-12-30T22:56:47.294Z,68.99
2018-12-30T22:59:18.581Z,69.88
2018-12-30T23:01:50.046Z,69.70
2018-12-30T23:04:21.572Z,69.79
2018-12-30T23:06:52.786Z,70.13
2018-12-30T23:09:24.298Z,70.53
2018-12-30T23:11:55.959Z,70.71
2018-12-30T23:14:27.288Z,70.43
2018-12-30T23:16:58.899Z,70.65
2018-12-30T23:19:30.322Z,70.96
2018-12-30T23:22:01.714Z,70.63
2018-12-30T23:24:33.043Z,71.03
2018-12-30T23:27:04.476Z,71.58
2018-12-30T23:29:35.827Z,71.64
2018-12-30T23:32:07.270Z,72.08
2018-12-30T23:34:38.728Z,72.17
2018-12-30T23:37:09.911Z,71.46
2018-12-30T23:39:41.460Z,71.34
2018-12-30T23:42:13.103Z,71.82
2018-12-30T23:44:44.559Z,72.05
2018-12-30T23:47:15.948Z,72.02
2018-12-30T23:49:47.366Z,72.22
2018-12-30T23:52:18.810Z,71.77
2018-12-30T23:54:50.233Z,72.01
2018-12-30T23:57:21.788Z,71.65
2018-12-30T23:59:52.913Z,72.12
